Hauptseite
METAR-TAF:

METAR-TAF

Flughäfen :

Fliegerhorst Wittmundhafen

Wittmund, Deutschland

Breite: 53-33N, Länge: 007-40E, Höhe: 8 m

Beobachtung

Neuester Wetterbericht von vor 35 Minuten, um 23:20 UTC
Wind 2 kt aus Nordost
Temperatur 11°C
Luftfeuchtigkeit 87%
Luftdruck 1025 hPa
Sichtweite 10 km oder mehr
Leicht bewölkt in der Höhe von 6000 ft
Aufgelockert bewölkt in der Höhe von 28000 ft

METAR: ETNT 302320Z 05002KT 9999 FEW060 SCT280 11/09 Q1025 BLU+

Zeit: 01:55 (23:55 UTC)

Prognose

Neuester Wetterbericht von vor 1 Stunde und 55 Minuten, um 22:00 UTC
Gültige Prognose vom 30 um 23 UTC bis 31 um 08 UTC
Wind 5 kt aus Ost/Nordost
Sichtweite 10 km oder mehr
Aufgelockert bewölkt in der Höhe von 6000 ft
Aufgelockert bewölkt in der Höhe von 23000 ft

TAF: ETNT 302200Z 3023/3108 06005KT 9999 NSW SCT060 SCT230 BY ETGL

Wetterbeobachtungen und Prognosen von mehr als 4000 Flughäfen (METAR und TAF Bericht).

Die verfügbaren Stationen werden durch gelbe und rote Markierungen auf der Karte dargestellt.

Führen Sie die Maus auf sie, um den Namen der Station zu sehen.

Darauf klicken, um die Beobachtung von Wetterbeobachtungen und Prognosen zu sehen.

Um die Karte zu ändern : klicken Sie auf den grünen Tasten mit einem schwarzen Kreuz Zum Vergrößern, auf den grünen Button mit einem Gedankenstrich zu verkleinern, oder auf die grünen Pfeile für benachbarte Karten.


METAR-TAF: